sensor_id;sensor_type;location;lat;lon;timestamp;P1;durP1;ratioP1;P2;durP2;ratioP2
78844;SDS011;68195;50.854;2.860;2023-04-12T00:00:58;3.90;;;2.33;;
78844;SDS011;68195;50.854;2.860;2023-04-12T00:03:26;3.55;;;2.15;;
78844;SDS011;68195;50.854;2.860;2023-04-12T00:05:52;4.05;;;2.38;;
78844;SDS011;68195;50.854;2.860;2023-04-12T00:08:23;4.03;;;2.55;;
78844;SDS011;68195;50.854;2.860;2023-04-12T00:10:56;5.15;;;2.55;;
78844;SDS011;68195;50.854;2.860;2023-04-12T00:13:22;3.67;;;2.40;;
78844;SDS011;68195;50.854;2.860;2023-04-12T00:15:50;3.42;;;2.60;;
78844;SDS011;68195;50.854;2.860;2023-04-12T00:18:17;4.75;;;2.28;;
78844;SDS011;68195;50.854;2.860;2023-04-12T00:20:43;4.68;;;2.10;;
78844;SDS011;68195;50.854;2.860;2023-04-12T00:23:09;4.40;;;2.17;;
78844;SDS011;68195;50.854;2.860;2023-04-12T00:25:36;4.68;;;2.15;;
78844;SDS011;68195;50.854;2.860;2023-04-12T00:28:05;3.80;;;2.13;;
78844;SDS011;68195;50.854;2.860;2023-04-12T00:30:36;4.53;;;2.08;;
78844;SDS011;68195;50.854;2.860;2023-04-12T00:33:01;4.60;;;2.38;;
78844;SDS011;68195;50.854;2.860;2023-04-12T00:35:26;3.38;;;1.80;;
78844;SDS011;68195;50.854;2.860;2023-04-12T00:37:54;2.78;;;1.80;;
78844;SDS011;68195;50.854;2.860;2023-04-12T00:40:19;3.65;;;2.35;;
78844;SDS011;68195;50.854;2.860;2023-04-12T00:42:47;3.90;;;2.28;;
78844;SDS011;68195;50.854;2.860;2023-04-12T00:45:12;4.55;;;1.95;;
78844;SDS011;68195;50.854;2.860;2023-04-12T00:47:38;4.32;;;1.95;;
78844;SDS011;68195;50.854;2.860;2023-04-12T00:50:07;4.03;;;1.60;;
78844;SDS011;68195;50.854;2.860;2023-04-12T00:52:33;4.32;;;2.05;;
78844;SDS011;68195;50.854;2.860;2023-04-12T00:55:05;3.17;;;1.90;;
78844;SDS011;68195;50.854;2.860;2023-04-12T00:57:35;3.70;;;2.10;;
78844;SDS011;68195;50.854;2.860;2023-04-12T01:00:04;3.45;;;2.22;;
78844;SDS011;68195;50.854;2.860;2023-04-12T01:02:40;3.17;;;1.77;;
78844;SDS011;68195;50.854;2.860;2023-04-12T01:05:11;3.90;;;1.92;;
78844;SDS011;68195;50.854;2.860;2023-04-12T01:07:57;4.70;;;1.90;;
78844;SDS011;68195;50.854;2.860;2023-04-12T01:10:48;3.03;;;1.70;;
78844;SDS011;68195;50.854;2.860;2023-04-12T01:13:38;4.55;;;1.80;;
78844;SDS011;68195;50.854;2.860;2023-04-12T01:19:05;3.15;;;1.95;;
78844;SDS011;68195;50.854;2.860;2023-04-12T01:27:31;2.78;;;1.70;;
78844;SDS011;68195;50.854;2.860;2023-04-12T01:30:00;4.45;;;1.70;;
78844;SDS011;68195;50.854;2.860;2023-04-12T01:32:31;2.72;;;1.83;;
78844;SDS011;68195;50.854;2.860;2023-04-12T01:35:00;3.13;;;1.90;;
78844;SDS011;68195;50.854;2.860;2023-04-12T01:37:30;2.65;;;1.70;;
78844;SDS011;68195;50.854;2.860;2023-04-12T01:39:59;3.30;;;2.05;;
78844;SDS011;68195;50.854;2.860;2023-04-12T01:42:30;3.30;;;1.75;;
78844;SDS011;68195;50.854;2.860;2023-04-12T01:44:56;4.85;;;1.98;;
78844;SDS011;68195;50.854;2.860;2023-04-12T01:47:22;3.70;;;2.00;;
78844;SDS011;68195;50.854;2.860;2023-04-12T01:52:44;4.13;;;2.30;;
78844;SDS011;68195;50.854;2.860;2023-04-12T01:55:21;4.47;;;2.50;;
78844;SDS011;68195;50.854;2.860;2023-04-12T01:57:49;3.60;;;1.70;;
78844;SDS011;68195;50.854;2.860;2023-04-12T02:00:17;4.22;;;1.95;;
78844;SDS011;68195;50.854;2.860;2023-04-12T02:02:46;2.85;;;2.15;;
78844;SDS011;68195;50.854;2.860;2023-04-12T02:05:12;3.40;;;2.08;;
78844;SDS011;68195;50.854;2.860;2023-04-12T02:07:40;2.80;;;1.67;;
78844;SDS011;68195;50.854;2.860;2023-04-12T02:10:06;3.13;;;2.33;;
78844;SDS011;68195;50.854;2.860;2023-04-12T02:12:33;4.93;;;2.05;;
78844;SDS011;68195;50.854;2.860;2023-04-12T02:14:59;3.63;;;2.20;;
78844;SDS011;68195;50.854;2.860;2023-04-12T02:17:24;3.07;;;2.23;;
78844;SDS011;68195;50.854;2.860;2023-04-12T02:19:53;3.28;;;2.17;;
78844;SDS011;68195;50.854;2.860;2023-04-12T02:22:19;2.80;;;1.92;;
78844;SDS011;68195;50.854;2.860;2023-04-12T02:24:44;2.90;;;2.10;;
78844;SDS011;68195;50.854;2.860;2023-04-12T02:27:10;3.00;;;2.10;;
78844;SDS011;68195;50.854;2.860;2023-04-12T02:29:42;3.17;;;2.00;;
78844;SDS011;68195;50.854;2.860;2023-04-12T02:32:08;3.95;;;1.80;;
78844;SDS011;68195;50.854;2.860;2023-04-12T02:34:39;4.28;;;2.10;;
78844;SDS011;68195;50.854;2.860;2023-04-12T02:37:06;3.80;;;2.03;;
78844;SDS011;68195;50.854;2.860;2023-04-12T02:39:31;2.55;;;1.77;;
78844;SDS011;68195;50.854;2.860;2023-04-12T02:41:58;3.72;;;1.90;;
78844;SDS011;68195;50.854;2.860;2023-04-12T02:44:26;2.97;;;1.73;;
78844;SDS011;68195;50.854;2.860;2023-04-12T02:49:23;1.55;;;1.15;;
78844;SDS011;68195;50.854;2.860;2023-04-12T02:51:49;1.75;;;1.20;;
78844;SDS011;68195;50.854;2.860;2023-04-12T02:54:16;1.67;;;1.10;;
78844;SDS011;68195;50.854;2.860;2023-04-12T02:56:42;2.67;;;1.20;;
78844;SDS011;68195;50.854;2.860;2023-04-12T02:59:07;1.45;;;1.10;;
78844;SDS011;68195;50.854;2.860;2023-04-12T03:01:38;1.63;;;1.10;;
78844;SDS011;68195;50.854;2.860;2023-04-12T03:04:12;1.92;;;1.00;;
78844;SDS011;68195;50.854;2.860;2023-04-12T03:06:38;1.85;;;1.00;;
78844;SDS011;68195;50.854;2.860;2023-04-12T03:09:17;2.10;;;1.25;;
78844;SDS011;68195;50.854;2.860;2023-04-12T03:11:45;2.03;;;1.13;;
78844;SDS011;68195;50.854;2.860;2023-04-12T03:14:11;2.10;;;1.48;;
78844;SDS011;68195;50.854;2.860;2023-04-12T03:16:39;3.35;;;0.95;;
78844;SDS011;68195;50.854;2.860;2023-04-12T03:19:07;3.72;;;0.95;;
78844;SDS011;68195;50.854;2.860;2023-04-12T03:21:35;3.33;;;1.40;;
78844;SDS011;68195;50.854;2.860;2023-04-12T03:24:01;4.32;;;1.25;;
78844;SDS011;68195;50.854;2.860;2023-04-12T03:26:28;4.00;;;1.10;;
78844;SDS011;68195;50.854;2.860;2023-04-12T03:28:55;3.70;;;1.10;;
78844;SDS011;68195;50.854;2.860;2023-04-12T03:31:23;3.20;;;1.38;;
78844;SDS011;68195;50.854;2.860;2023-04-12T03:33:51;3.17;;;1.08;;
78844;SDS011;68195;50.854;2.860;2023-04-12T03:36:16;7.10;;;1.35;;
78844;SDS011;68195;50.854;2.860;2023-04-12T03:38:45;2.17;;;0.80;;
78844;SDS011;68195;50.854;2.860;2023-04-12T03:41:14;2.80;;;1.13;;
78844;SDS011;68195;50.854;2.860;2023-04-12T03:43:40;3.25;;;1.15;;
78844;SDS011;68195;50.854;2.860;2023-04-12T03:46:08;6.38;;;1.50;;
78844;SDS011;68195;50.854;2.860;2023-04-12T03:48:33;5.05;;;1.50;;
78844;SDS011;68195;50.854;2.860;2023-04-12T03:51:00;2.78;;;1.20;;
78844;SDS011;68195;50.854;2.860;2023-04-12T03:53:31;3.22;;;1.38;;
78844;SDS011;68195;50.854;2.860;2023-04-12T03:55:59;8.23;;;2.22;;
78844;SDS011;68195;50.854;2.860;2023-04-12T03:58:25;5.10;;;1.00;;
78844;SDS011;68195;50.854;2.860;2023-04-12T04:00:52;6.63;;;1.42;;
78844;SDS011;68195;50.854;2.860;2023-04-12T04:03:18;2.42;;;1.23;;
78844;SDS011;68195;50.854;2.860;2023-04-12T04:05:46;4.05;;;1.15;;
78844;SDS011;68195;50.854;2.860;2023-04-12T04:08:14;4.78;;;1.52;;
78844;SDS011;68195;50.854;2.860;2023-04-12T04:10:39;3.67;;;1.17;;
78844;SDS011;68195;50.854;2.860;2023-04-12T04:13:07;6.43;;;1.52;;
78844;SDS011;68195;50.854;2.860;2023-04-12T04:15:32;5.28;;;1.42;;
78844;SDS011;68195;50.854;2.860;2023-04-12T04:18:00;7.60;;;1.63;;
78844;SDS011;68195;50.854;2.860;2023-04-12T04:20:28;9.68;;;1.80;;
78844;SDS011;68195;50.854;2.860;2023-04-12T04:22:53;5.70;;;1.75;;
78844;SDS011;68195;50.854;2.860;2023-04-12T04:25:19;8.50;;;1.50;;
78844;SDS011;68195;50.854;2.860;2023-04-12T04:27:46;7.40;;;1.75;;
78844;SDS011;68195;50.854;2.860;2023-04-12T04:30:15;3.35;;;1.10;;
78844;SDS011;68195;50.854;2.860;2023-04-12T04:32:47;4.35;;;1.90;;
78844;SDS011;68195;50.854;2.860;2023-04-12T04:35:12;6.95;;;1.58;;
78844;SDS011;68195;50.854;2.860;2023-04-12T04:37:40;6.20;;;1.42;;
78844;SDS011;68195;50.854;2.860;2023-04-12T04:40:06;5.57;;;1.92;;
78844;SDS011;68195;50.854;2.860;2023-04-12T04:42:41;10.55;;;2.00;;
78844;SDS011;68195;50.854;2.860;2023-04-12T04:45:07;6.03;;;1.73;;
78844;SDS011;68195;50.854;2.860;2023-04-12T04:47:40;5.22;;;2.75;;
78844;SDS011;68195;50.854;2.860;2023-04-12T04:50:05;5.15;;;1.30;;
78844;SDS011;68195;50.854;2.860;2023-04-12T04:52:31;5.63;;;1.60;;
78844;SDS011;68195;50.854;2.860;2023-04-12T04:54:57;5.22;;;1.55;;
78844;SDS011;68195;50.854;2.860;2023-04-12T04:57:22;6.95;;;1.95;;
78844;SDS011;68195;50.854;2.860;2023-04-12T04:59:53;7.45;;;1.88;;
78844;SDS011;68195;50.854;2.860;2023-04-12T05:02:18;6.68;;;1.52;;
78844;SDS011;68195;50.854;2.860;2023-04-12T05:04:43;7.55;;;2.05;;
78844;SDS011;68195;50.854;2.860;2023-04-12T05:07:11;6.22;;;1.35;;
78844;SDS011;68195;50.854;2.860;2023-04-12T05:09:40;5.30;;;1.60;;
78844;SDS011;68195;50.854;2.860;2023-04-12T05:12:07;6.22;;;1.52;;
78844;SDS011;68195;50.854;2.860;2023-04-12T05:14:35;4.45;;;1.52;;
78844;SDS011;68195;50.854;2.860;2023-04-12T05:17:04;6.45;;;1.60;;
78844;SDS011;68195;50.854;2.860;2023-04-12T05:19:32;5.82;;;1.55;;
78844;SDS011;68195;50.854;2.860;2023-04-12T05:21:57;4.97;;;1.70;;
78844;SDS011;68195;50.854;2.860;2023-04-12T05:24:22;3.33;;;1.33;;
78844;SDS011;68195;50.854;2.860;2023-04-12T05:26:48;5.95;;;1.65;;
78844;SDS011;68195;50.854;2.860;2023-04-12T05:29:24;4.40;;;1.83;;
78844;SDS011;68195;50.854;2.860;2023-04-12T05:31:50;4.63;;;1.38;;
78844;SDS011;68195;50.854;2.860;2023-04-12T05:34:15;3.75;;;2.17;;
78844;SDS011;68195;50.854;2.860;2023-04-12T05:36:41;2.60;;;1.35;;
78844;SDS011;68195;50.854;2.860;2023-04-12T05:39:06;12.05;;;1.92;;
78844;SDS011;68195;50.854;2.860;2023-04-12T05:41:31;6.75;;;1.90;;
78844;SDS011;68195;50.854;2.860;2023-04-12T05:43:59;2.58;;;1.15;;
78844;SDS011;68195;50.854;2.860;2023-04-12T05:46:29;4.18;;;1.33;;
78844;SDS011;68195;50.854;2.860;2023-04-12T05:48:55;5.47;;;1.10;;
78844;SDS011;68195;50.854;2.860;2023-04-12T05:51:23;5.30;;;1.23;;
78844;SDS011;68195;50.854;2.860;2023-04-12T05:53:48;5.35;;;1.40;;
78844;SDS011;68195;50.854;2.860;2023-04-12T05:56:18;4.90;;;1.35;;
78844;SDS011;68195;50.854;2.860;2023-04-12T05:58:46;3.58;;;1.63;;
78844;SDS011;68195;50.854;2.860;2023-04-12T06:01:12;5.00;;;1.73;;
78844;SDS011;68195;50.854;2.860;2023-04-12T06:03:40;6.43;;;1.58;;
78844;SDS011;68195;50.854;2.860;2023-04-12T06:06:07;6.57;;;1.52;;
78844;SDS011;68195;50.854;2.860;2023-04-12T06:08:36;4.43;;;1.23;;
78844;SDS011;68195;50.854;2.860;2023-04-12T06:11:06;8.40;;;1.70;;
78844;SDS011;68195;50.854;2.860;2023-04-12T06:13:36;1.25;;;0.90;;
78844;SDS011;68195;50.854;2.860;2023-04-12T06:16:04;8.48;;;1.25;;
78844;SDS011;68195;50.854;2.860;2023-04-12T06:18:35;4.45;;;1.02;;
78844;SDS011;68195;50.854;2.860;2023-04-12T06:21:03;2.75;;;1.50;;
78844;SDS011;68195;50.854;2.860;2023-04-12T06:23:29;6.22;;;2.13;;
78844;SDS011;68195;50.854;2.860;2023-04-12T06:25:57;3.25;;;1.20;;
78844;SDS011;68195;50.854;2.860;2023-04-12T06:28:28;5.00;;;1.40;;
78844;SDS011;68195;50.854;2.860;2023-04-12T06:30:55;3.25;;;0.82;;
78844;SDS011;68195;50.854;2.860;2023-04-12T06:33:21;2.30;;;1.20;;
78844;SDS011;68195;50.854;2.860;2023-04-12T06:35:47;2.83;;;1.20;;
78844;SDS011;68195;50.854;2.860;2023-04-12T06:38:15;4.85;;;1.23;;
78844;SDS011;68195;50.854;2.860;2023-04-12T06:40:46;6.68;;;1.55;;
78844;SDS011;68195;50.854;2.860;2023-04-12T06:43:12;4.15;;;1.15;;
78844;SDS011;68195;50.854;2.860;2023-04-12T06:45:44;4.60;;;1.10;;
78844;SDS011;68195;50.854;2.860;2023-04-12T06:50:38;2.85;;;1.13;;
78844;SDS011;68195;50.854;2.860;2023-04-12T06:53:03;6.55;;;1.60;;
78844;SDS011;68195;50.854;2.860;2023-04-12T06:55:29;6.22;;;1.35;;
78844;SDS011;68195;50.854;2.860;2023-04-12T06:57:57;5.68;;;1.13;;
78844;SDS011;68195;50.854;2.860;2023-04-12T07:00:22;1.90;;;0.93;;
78844;SDS011;68195;50.854;2.860;2023-04-12T07:02:51;3.55;;;1.13;;
78844;SDS011;68195;50.854;2.860;2023-04-12T07:05:16;4.20;;;0.70;;
78844;SDS011;68195;50.854;2.860;2023-04-12T07:07:42;6.57;;;1.20;;
78844;SDS011;68195;50.854;2.860;2023-04-12T07:10:08;3.33;;;1.00;;
78844;SDS011;68195;50.854;2.860;2023-04-12T07:12:34;4.20;;;1.77;;
78844;SDS011;68195;50.854;2.860;2023-04-12T07:15:00;3.95;;;1.30;;
78844;SDS011;68195;50.854;2.860;2023-04-12T07:17:27;6.32;;;2.05;;
78844;SDS011;68195;50.854;2.860;2023-04-12T07:19:53;4.72;;;1.98;;
78844;SDS011;68195;50.854;2.860;2023-04-12T07:22:21;4.60;;;1.88;;
78844;SDS011;68195;50.854;2.860;2023-04-12T07:24:49;3.08;;;1.30;;
78844;SDS011;68195;50.854;2.860;2023-04-12T07:27:19;2.65;;;1.27;;
78844;SDS011;68195;50.854;2.860;2023-04-12T07:29:49;3.78;;;1.70;;
78844;SDS011;68195;50.854;2.860;2023-04-12T07:32:16;3.00;;;0.98;;
78844;SDS011;68195;50.854;2.860;2023-04-12T07:34:41;4.43;;;1.23;;
78844;SDS011;68195;50.854;2.860;2023-04-12T07:37:06;3.72;;;1.33;;
78844;SDS011;68195;50.854;2.860;2023-04-12T07:39:32;5.78;;;1.67;;
78844;SDS011;68195;50.854;2.860;2023-04-12T07:41:58;5.72;;;1.13;;
78844;SDS011;68195;50.854;2.860;2023-04-12T07:44:26;7.03;;;1.90;;
78844;SDS011;68195;50.854;2.860;2023-04-12T07:46:51;2.33;;;1.60;;
78844;SDS011;68195;50.854;2.860;2023-04-12T07:49:17;5.30;;;1.40;;
78844;SDS011;68195;50.854;2.860;2023-04-12T07:51:42;5.15;;;1.30;;
78844;SDS011;68195;50.854;2.860;2023-04-12T07:54:08;4.15;;;1.40;;
78844;SDS011;68195;50.854;2.860;2023-04-12T07:56:33;3.38;;;1.40;;
78844;SDS011;68195;50.854;2.860;2023-04-12T08:01:24;4.10;;;1.20;;
78844;SDS011;68195;50.854;2.860;2023-04-12T08:03:50;4.45;;;1.33;;
78844;SDS011;68195;50.854;2.860;2023-04-12T08:06:15;5.53;;;1.70;;
78844;SDS011;68195;50.854;2.860;2023-04-12T08:08:41;5.82;;;1.23;;
78844;SDS011;68195;50.854;2.860;2023-04-12T08:11:09;4.65;;;1.60;;
78844;SDS011;68195;50.854;2.860;2023-04-12T08:13:36;1.55;;;0.95;;
78844;SDS011;68195;50.854;2.860;2023-04-12T08:16:02;7.82;;;1.52;;
78844;SDS011;68195;50.854;2.860;2023-04-12T08:18:30;5.28;;;1.55;;
78844;SDS011;68195;50.854;2.860;2023-04-12T08:20:58;7.68;;;2.40;;
78844;SDS011;68195;50.854;2.860;2023-04-12T08:23:24;4.55;;;1.52;;
78844;SDS011;68195;50.854;2.860;2023-04-12T08:25:51;8.23;;;1.58;;
78844;SDS011;68195;50.854;2.860;2023-04-12T08:28:16;7.57;;;1.63;;
78844;SDS011;68195;50.854;2.860;2023-04-12T08:30:42;5.93;;;2.05;;
78844;SDS011;68195;50.854;2.860;2023-04-12T08:33:07;8.57;;;1.90;;
78844;SDS011;68195;50.854;2.860;2023-04-12T08:35:33;11.52;;;2.17;;
78844;SDS011;68195;50.854;2.860;2023-04-12T08:37:58;13.30;;;2.22;;
78844;SDS011;68195;50.854;2.860;2023-04-12T08:40:30;8.27;;;2.03;;
78844;SDS011;68195;50.854;2.860;2023-04-12T08:43:04;8.38;;;1.77;;
78844;SDS011;68195;50.854;2.860;2023-04-12T08:47:59;10.02;;;2.00;;
78844;SDS011;68195;50.854;2.860;2023-04-12T08:50:29;9.05;;;2.55;;
78844;SDS011;68195;50.854;2.860;2023-04-12T08:52:58;10.70;;;2.50;;
78844;SDS011;68195;50.854;2.860;2023-04-12T08:55:24;12.52;;;2.10;;
78844;SDS011;68195;50.854;2.860;2023-04-12T08:57:50;12.48;;;2.83;;
78844;SDS011;68195;50.854;2.860;2023-04-12T09:00:18;7.68;;;1.73;;
78844;SDS011;68195;50.854;2.860;2023-04-12T09:02:44;5.35;;;2.42;;
78844;SDS011;68195;50.854;2.860;2023-04-12T09:05:13;8.85;;;2.38;;
78844;SDS011;68195;50.854;2.860;2023-04-12T09:07:39;7.93;;;2.10;;
78844;SDS011;68195;50.854;2.860;2023-04-12T09:10:05;7.80;;;1.75;;
78844;SDS011;68195;50.854;2.860;2023-04-12T09:12:31;6.50;;;2.42;;
78844;SDS011;68195;50.854;2.860;2023-04-12T09:17:32;6.55;;;1.83;;
78844;SDS011;68195;50.854;2.860;2023-04-12T09:20:00;10.93;;;2.63;;
78844;SDS011;68195;50.854;2.860;2023-04-12T09:22:32;8.23;;;2.20;;
78844;SDS011;68195;50.854;2.860;2023-04-12T09:24:59;11.00;;;2.13;;
78844;SDS011;68195;50.854;2.860;2023-04-12T09:29:55;11.50;;;2.13;;
78844;SDS011;68195;50.854;2.860;2023-04-12T09:32:31;5.88;;;1.67;;
78844;SDS011;68195;50.854;2.860;2023-04-12T09:34:58;5.32;;;1.25;;
78844;SDS011;68195;50.854;2.860;2023-04-12T09:37:29;2.78;;;1.30;;
78844;SDS011;68195;50.854;2.860;2023-04-12T09:39:58;2.25;;;1.38;;
78844;SDS011;68195;50.854;2.860;2023-04-12T09:42:28;2.63;;;0.82;;
78844;SDS011;68195;50.854;2.860;2023-04-12T09:44:59;2.00;;;0.80;;
78844;SDS011;68195;50.854;2.860;2023-04-12T09:47:39;2.65;;;0.82;;
78844;SDS011;68195;50.854;2.860;2023-04-12T09:50:06;0.88;;;0.57;;
78844;SDS011;68195;50.854;2.860;2023-04-12T09:52:37;2.10;;;0.55;;
78844;SDS011;68195;50.854;2.860;2023-04-12T09:55:09;2.17;;;0.52;;
78844;SDS011;68195;50.854;2.860;2023-04-12T09:57:38;1.90;;;0.60;;
78844;SDS011;68195;50.854;2.860;2023-04-12T10:00:06;0.68;;;0.60;;
78844;SDS011;68195;50.854;2.860;2023-04-12T10:02:39;1.00;;;0.38;;
78844;SDS011;68195;50.854;2.860;2023-04-12T10:05:12;1.02;;;0.60;;
78844;SDS011;68195;50.854;2.860;2023-04-12T10:07:39;2.13;;;0.50;;
78844;SDS011;68195;50.854;2.860;2023-04-12T10:10:08;1.42;;;0.65;;
78844;SDS011;68195;50.854;2.860;2023-04-12T10:12:36;0.50;;;0.50;;
78844;SDS011;68195;50.854;2.860;2023-04-12T10:15:03;1.30;;;0.50;;
78844;SDS011;68195;50.854;2.860;2023-04-12T10:17:36;2.00;;;0.63;;
78844;SDS011;68195;50.854;2.860;2023-04-12T10:20:09;2.25;;;0.63;;
78844;SDS011;68195;50.854;2.860;2023-04-12T10:22:37;1.80;;;0.73;;
78844;SDS011;68195;50.854;2.860;2023-04-12T10:25:03;2.42;;;0.70;;
78844;SDS011;68195;50.854;2.860;2023-04-12T10:27:29;2.15;;;1.20;;
78844;SDS011;68195;50.854;2.860;2023-04-12T10:30:17;1.90;;;0.70;;
78844;SDS011;68195;50.854;2.860;2023-04-12T10:35:29;3.53;;;1.17;;
78844;SDS011;68195;50.854;2.860;2023-04-12T10:38:12;6.22;;;1.30;;
78844;SDS011;68195;50.854;2.860;2023-04-12T10:40:38;5.30;;;1.40;;
78844;SDS011;68195;50.854;2.860;2023-04-12T10:43:32;3.22;;;1.00;;
78844;SDS011;68195;50.854;2.860;2023-04-12T10:45:58;1.95;;;1.00;;
78844;SDS011;68195;50.854;2.860;2023-04-12T10:51:15;1.60;;;0.90;;
78844;SDS011;68195;50.854;2.860;2023-04-12T10:53:42;2.92;;;1.17;;
78844;SDS011;68195;50.854;2.860;2023-04-12T10:59:05;4.90;;;1.40;;
78844;SDS011;68195;50.854;2.860;2023-04-12T11:01:32;3.38;;;1.08;;
78844;SDS011;68195;50.854;2.860;2023-04-12T11:14:30;1.60;;;0.80;;
78844;SDS011;68195;50.854;2.860;2023-04-12T11:19:32;5.57;;;1.45;;
78844;SDS011;68195;50.854;2.860;2023-04-12T11:22:09;3.72;;;1.30;;
78844;SDS011;68195;50.854;2.860;2023-04-12T11:24:37;6.22;;;1.48;;
78844;SDS011;68195;50.854;2.860;2023-04-12T11:27:06;1.55;;;0.70;;
78844;SDS011;68195;50.854;2.860;2023-04-12T11:29:34;2.20;;;0.65;;
78844;SDS011;68195;50.854;2.860;2023-04-12T11:32:04;1.75;;;0.90;;
78844;SDS011;68195;50.854;2.860;2023-04-12T11:34:35;5.85;;;1.05;;
78844;SDS011;68195;50.854;2.860;2023-04-12T11:37:10;4.82;;;0.98;;
78844;SDS011;68195;50.854;2.860;2023-04-12T11:39:37;0.95;;;0.55;;
78844;SDS011;68195;50.854;2.860;2023-04-12T11:42:04;4.95;;;1.00;;
78844;SDS011;68195;50.854;2.860;2023-04-12T11:44:32;1.08;;;0.80;;
78844;SDS011;68195;50.854;2.860;2023-04-12T11:46:58;4.10;;;0.95;;
78844;SDS011;68195;50.854;2.860;2023-04-12T11:49:28;3.40;;;0.93;;
78844;SDS011;68195;50.854;2.860;2023-04-12T11:52:00;3.58;;;1.02;;
78844;SDS011;68195;50.854;2.860;2023-04-12T11:54:28;6.05;;;1.05;;
78844;SDS011;68195;50.854;2.860;2023-04-12T11:56:55;2.85;;;0.70;;
78844;SDS011;68195;50.854;2.860;2023-04-12T11:59:22;3.20;;;0.82;;
78844;SDS011;68195;50.854;2.860;2023-04-12T12:01:50;1.17;;;0.85;;
78844;SDS011;68195;50.854;2.860;2023-04-12T12:04:18;3.95;;;1.13;;
78844;SDS011;68195;50.854;2.860;2023-04-12T12:06:43;1.73;;;0.98;;
78844;SDS011;68195;50.854;2.860;2023-04-12T12:09:10;3.45;;;0.85;;
78844;SDS011;68195;50.854;2.860;2023-04-12T12:11:35;5.10;;;1.35;;
78844;SDS011;68195;50.854;2.860;2023-04-12T12:14:01;7.55;;;1.42;;
78844;SDS011;68195;50.854;2.860;2023-04-12T12:18:53;3.33;;;0.98;;
78844;SDS011;68195;50.854;2.860;2023-04-12T12:21:19;5.72;;;1.15;;
78844;SDS011;68195;50.854;2.860;2023-04-12T12:23:48;2.17;;;1.05;;
78844;SDS011;68195;50.854;2.860;2023-04-12T12:26:20;7.70;;;1.65;;
78844;SDS011;68195;50.854;2.860;2023-04-12T12:28:50;3.90;;;1.02;;
78844;SDS011;68195;50.854;2.860;2023-04-12T12:31:21;8.55;;;1.50;;
78844;SDS011;68195;50.854;2.860;2023-04-12T12:33:54;4.60;;;1.40;;
78844;SDS011;68195;50.854;2.860;2023-04-12T12:36:27;6.40;;;1.00;;
78844;SDS011;68195;50.854;2.860;2023-04-12T12:39:01;3.17;;;1.20;;
78844;SDS011;68195;50.854;2.860;2023-04-12T12:41:31;4.93;;;1.00;;
78844;SDS011;68195;50.854;2.860;2023-04-12T12:43:56;3.60;;;1.17;;
78844;SDS011;68195;50.854;2.860;2023-04-12T12:46:21;1.70;;;0.80;;
78844;SDS011;68195;50.854;2.860;2023-04-12T12:48:47;4.50;;;1.02;;
78844;SDS011;68195;50.854;2.860;2023-04-12T12:53:41;3.08;;;0.95;;
78844;SDS011;68195;50.854;2.860;2023-04-12T12:56:11;4.32;;;1.85;;
78844;SDS011;68195;50.854;2.860;2023-04-12T12:58:37;3.33;;;1.23;;
78844;SDS011;68195;50.854;2.860;2023-04-12T13:01:04;2.40;;;0.68;;
78844;SDS011;68195;50.854;2.860;2023-04-12T13:03:30;5.78;;;1.17;;
78844;SDS011;68195;50.854;2.860;2023-04-12T13:05:56;3.90;;;1.00;;
78844;SDS011;68195;50.854;2.860;2023-04-12T13:08:22;3.75;;;1.40;;
78844;SDS011;68195;50.854;2.860;2023-04-12T13:10:48;3.90;;;1.30;;
78844;SDS011;68195;50.854;2.860;2023-04-12T13:13:19;3.83;;;1.00;;
78844;SDS011;68195;50.854;2.860;2023-04-12T13:15:45;3.30;;;0.85;;
78844;SDS011;68195;50.854;2.860;2023-04-12T13:18:15;3.75;;;1.00;;
78844;SDS011;68195;50.854;2.860;2023-04-12T13:20:46;1.58;;;0.80;;
78844;SDS011;68195;50.854;2.860;2023-04-12T13:23:12;4.22;;;0.90;;
78844;SDS011;68195;50.854;2.860;2023-04-12T13:25:38;3.40;;;1.15;;
78844;SDS011;68195;50.854;2.860;2023-04-12T13:28:04;2.20;;;0.85;;
78844;SDS011;68195;50.854;2.860;2023-04-12T13:30:29;7.00;;;1.20;;
78844;SDS011;68195;50.854;2.860;2023-04-12T13:32:55;6.93;;;1.23;;
78844;SDS011;68195;50.854;2.860;2023-04-12T13:35:20;2.50;;;1.00;;
78844;SDS011;68195;50.854;2.860;2023-04-12T13:37:45;4.32;;;1.00;;
78844;SDS011;68195;50.854;2.860;2023-04-12T13:40:11;4.82;;;1.15;;
78844;SDS011;68195;50.854;2.860;2023-04-12T13:42:39;2.95;;;1.00;;
78844;SDS011;68195;50.854;2.860;2023-04-12T13:45:05;0.65;;;0.32;;
78844;SDS011;68195;50.854;2.860;2023-04-12T13:47:31;2.13;;;0.60;;
78844;SDS011;68195;50.854;2.860;2023-04-12T13:52:24;3.78;;;0.60;;
78844;SDS011;68195;50.854;2.860;2023-04-12T13:54:52;5.05;;;1.13;;
78844;SDS011;68195;50.854;2.860;2023-04-12T13:57:17;5.03;;;1.00;;
78844;SDS011;68195;50.854;2.860;2023-04-12T13:59:43;3.72;;;1.08;;
78844;SDS011;68195;50.854;2.860;2023-04-12T14:02:10;2.15;;;1.00;;
78844;SDS011;68195;50.854;2.860;2023-04-12T14:04:36;2.33;;;0.95;;
78844;SDS011;68195;50.854;2.860;2023-04-12T14:07:17;4.05;;;1.40;;
78844;SDS011;68195;50.854;2.860;2023-04-12T14:09:44;5.43;;;1.27;;
78844;SDS011;68195;50.854;2.860;2023-04-12T14:12:12;5.43;;;1.10;;
78844;SDS011;68195;50.854;2.860;2023-04-12T14:14:42;4.47;;;1.20;;
78844;SDS011;68195;50.854;2.860;2023-04-12T14:17:07;6.22;;;1.38;;
78844;SDS011;68195;50.854;2.860;2023-04-12T14:19:33;5.72;;;1.50;;
78844;SDS011;68195;50.854;2.860;2023-04-12T14:22:02;4.53;;;1.02;;
78844;SDS011;68195;50.854;2.860;2023-04-12T14:24:28;4.13;;;1.05;;
78844;SDS011;68195;50.854;2.860;2023-04-12T14:26:53;4.82;;;0.90;;
78844;SDS011;68195;50.854;2.860;2023-04-12T14:29:18;8.80;;;1.52;;
78844;SDS011;68195;50.854;2.860;2023-04-12T14:31:44;11.73;;;1.50;;
78844;SDS011;68195;50.854;2.860;2023-04-12T14:34:12;7.63;;;1.25;;
78844;SDS011;68195;50.854;2.860;2023-04-12T14:36:40;6.50;;;2.28;;
78844;SDS011;68195;50.854;2.860;2023-04-12T14:39:05;4.78;;;1.20;;
78844;SDS011;68195;50.854;2.860;2023-04-12T14:41:34;3.00;;;1.20;;
78844;SDS011;68195;50.854;2.860;2023-04-12T14:43:59;4.28;;;1.13;;
78844;SDS011;68195;50.854;2.860;2023-04-12T14:46:25;4.05;;;1.40;;
78844;SDS011;68195;50.854;2.860;2023-04-12T14:48:52;5.38;;;1.30;;
78844;SDS011;68195;50.854;2.860;2023-04-12T14:51:20;7.72;;;1.42;;
78844;SDS011;68195;50.854;2.860;2023-04-12T14:53:46;6.18;;;1.45;;
78844;SDS011;68195;50.854;2.860;2023-04-12T14:58:44;7.25;;;1.65;;
78844;SDS011;68195;50.854;2.860;2023-04-12T15:01:10;5.30;;;1.20;;
78844;SDS011;68195;50.854;2.860;2023-04-12T15:03:36;6.57;;;1.10;;
78844;SDS011;68195;50.854;2.860;2023-04-12T15:06:08;3.70;;;0.82;;
78844;SDS011;68195;50.854;2.860;2023-04-12T15:08:37;8.23;;;1.48;;
78844;SDS011;68195;50.854;2.860;2023-04-12T15:11:06;5.10;;;1.05;;
78844;SDS011;68195;50.854;2.860;2023-04-12T15:13:35;4.88;;;1.40;;
78844;SDS011;68195;50.854;2.860;2023-04-12T15:16:06;4.35;;;0.98;;
78844;SDS011;68195;50.854;2.860;2023-04-12T15:18:36;9.80;;;1.45;;
78844;SDS011;68195;50.854;2.860;2023-04-12T15:21:12;4.95;;;1.17;;
78844;SDS011;68195;50.854;2.860;2023-04-12T15:23:38;3.28;;;1.08;;
78844;SDS011;68195;50.854;2.860;2023-04-12T15:26:05;4.75;;;1.60;;
78844;SDS011;68195;50.854;2.860;2023-04-12T15:28:33;5.20;;;1.40;;
78844;SDS011;68195;50.854;2.860;2023-04-12T15:31:02;3.90;;;1.13;;
78844;SDS011;68195;50.854;2.860;2023-04-12T15:33:30;2.25;;;0.77;;
78844;SDS011;68195;50.854;2.860;2023-04-12T15:35:58;3.83;;;1.33;;
78844;SDS011;68195;50.854;2.860;2023-04-12T15:38:27;2.08;;;1.08;;
78844;SDS011;68195;50.854;2.860;2023-04-12T15:40:57;7.78;;;1.85;;
78844;SDS011;68195;50.854;2.860;2023-04-12T15:43:24;2.55;;;1.08;;
78844;SDS011;68195;50.854;2.860;2023-04-12T15:45:51;6.55;;;1.58;;
78844;SDS011;68195;50.854;2.860;2023-04-12T15:48:19;4.28;;;1.17;;
78844;SDS011;68195;50.854;2.860;2023-04-12T15:50:46;3.30;;;0.90;;